Time;durP1;ratioP1;P1;durP2;ratioP2;P2;SDS_P1;SDS_P2;PMS_P1;PMS_P2;Temp;Humidity;BMP_temperature;BMP_pressure;BME280_temperature;BME280_humidity;BME280_pressure;Samples;Min_cycle;Max_cycle;Signal;HPM_P1;HPM_P2
2021/12/01 00:00:05;;;;;;;2.28;1.60;;;;;;;;;;5125490;28;20028;-78
2021/12/01 00:02:31;;;;;;;2.10;1.40;;;;;;;;;;5106724;28;20016;-77
2021/12/01 00:04:57;;;;;;;2.25;1.60;;;;;;;;;;5120409;27;20035;-78
2021/12/01 00:07:23;;;;;;;2.13;1.50;;;;;;;;;;5109453;27;20024;-76
2021/12/01 00:09:51;;;;;;;2.00;1.90;;;;;;;;;;5100508;28;20410;-76
2021/12/01 00:12:17;;;;;;;1.55;1.30;;;;;;;;;;5119953;28;20012;-77
2021/12/01 00:14:44;;;;;;;1.75;1.50;;;;;;;;;;5121896;28;20032;-77
2021/12/01 00:17:12;;;;;;;3.05;1.40;;;;;;;;;;5112872;28;20091;-78
2021/12/01 00:19:38;;;;;;;2.40;1.30;;;;;;;;;;5108947;28;20038;-76
2021/12/01 00:22:04;;;;;;;2.42;1.75;;;;;;;;;;5123379;28;20024;-78
2021/12/01 00:24:30;;;;;;;2.28;1.80;;;;;;;;;;5121534;28;20024;-76
2021/12/01 00:26:56;;;;;;;1.88;1.63;;;;;;;;;;5117027;28;20032;-79
2021/12/01 00:29:23;;;;;;;1.73;1.35;;;;;;;;;;5105738;28;20099;-76
2021/12/01 00:31:49;;;;;;;1.50;1.40;;;;;;;;;;5093310;28;20095;-78
2021/12/01 00:34:16;;;;;;;1.73;1.35;;;;;;;;;;5107573;28;20031;-77
2021/12/01 00:36:42;;;;;;;4.32;1.50;;;;;;;;;;5105890;28;20082;-78
2021/12/01 00:39:08;;;;;;;1.40;1.20;;;;;;;;;;5110134;28;20088;-77
2021/12/01 00:41:34;;;;;;;1.77;1.67;;;;;;;;;;5123567;28;20019;-79
2021/12/01 00:44:00;;;;;;;2.28;1.50;;;;;;;;;;5117469;28;20053;-76
2021/12/01 00:49:01;;;;;;;2.63;1.45;;;;;;;;;;5105406;28;20035;-79
2021/12/01 00:51:30;;;;;;;3.35;1.33;;;;;;;;;;5116695;27;20046;-75
2021/12/01 00:53:56;;;;;;;3.88;1.52;;;;;;;;;;5114358;27;20547;-78
2021/12/01 00:56:22;;;;;;;2.88;1.38;;;;;;;;;;5117631;28;20103;-79
2021/12/01 00:58:50;;;;;;;3.25;2.05;;;;;;;;;;5104859;28;20095;-80
2021/12/01 01:01:16;;;;;;;7.32;2.25;;;;;;;;;;5091428;28;20028;-76
2021/12/01 01:03:42;;;;;;;1.98;1.35;;;;;;;;;;5123429;28;20077;-78
2021/12/01 01:06:09;;;;;;;2.75;2.13;;;;;;;;;;5114141;28;20032;-76
2021/12/01 01:08:35;;;;;;;3.75;1.95;;;;;;;;;;5107917;28;20016;-79
2021/12/01 01:16:23;;;;;;;;;;;;;;;;;;5112172;28;20103;-79
2021/12/01 01:18:50;;;;;;;4.97;1.73;;;;;;;;;;5134961;27;20006;-78
2021/12/01 01:21:17;;;;;;;3.53;2.30;;;;;;;;;;5107219;28;20382;-77
2021/12/01 01:23:44;;;;;;;4.45;1.80;;;;;;;;;;5117639;28;20021;-75
2021/12/01 01:26:11;;;;;;;5.30;2.35;;;;;;;;;;5117198;28;20034;-77
2021/12/01 01:28:37;;;;;;;3.33;1.90;;;;;;;;;;5090538;28;20551;-77
2021/12/01 01:31:03;;;;;;;7.13;1.88;;;;;;;;;;5123059;28;20386;-77
2021/12/01 01:33:29;;;;;;;5.55;1.92;;;;;;;;;;5107690;27;20036;-76
2021/12/01 01:35:55;;;;;;;3.92;1.83;;;;;;;;;;5103975;28;20052;-78
2021/12/01 01:38:21;;;;;;;3.75;1.60;;;;;;;;;;5088074;28;20016;-77
2021/12/01 01:40:48;;;;;;;5.22;2.22;;;;;;;;;;5088273;28;20024;-77
2021/12/01 01:43:14;;;;;;;4.97;1.60;;;;;;;;;;5114706;28;20103;-76
2021/12/01 01:45:40;;;;;;;5.43;1.80;;;;;;;;;;5117015;28;20028;-79
2021/12/01 01:48:10;;;;;;;3.65;1.80;;;;;;;;;;5117858;28;20441;-76
2021/12/01 01:50:37;;;;;;;3.08;1.60;;;;;;;;;;5084552;28;20024;-78
2021/12/01 01:53:03;;;;;;;7.45;2.10;;;;;;;;;;5107242;28;20056;-76
2021/12/01 01:55:29;;;;;;;5.82;2.20;;;;;;;;;;5106692;28;20444;-77
2021/12/01 01:57:55;;;;;;;5.55;1.67;;;;;;;;;;5111937;28;20553;-78
2021/12/01 02:00:21;;;;;;;2.88;1.77;;;;;;;;;;5120970;28;20026;-77
2021/12/01 02:02:48;;;;;;;3.35;1.92;;;;;;;;;;5106326;28;20039;-78
2021/12/01 02:05:15;;;;;;;4.97;2.28;;;;;;;;;;5114671;28;20042;-77
2021/12/01 02:07:43;;;;;;;4.70;1.73;;;;;;;;;;5112472;27;20076;-76
2021/12/01 02:10:09;;;;;;;5.20;1.80;;;;;;;;;;5107985;28;20050;-76
2021/12/01 02:12:37;;;;;;;2.85;1.85;;;;;;;;;;5106640;28;20110;-78
2021/12/01 02:15:03;;;;;;;4.35;1.73;;;;;;;;;;5111214;28;20050;-78
2021/12/01 02:17:29;;;;;;;7.25;1.95;;;;;;;;;;5126082;27;20107;-78
2021/12/01 02:19:55;;;;;;;5.93;2.30;;;;;;;;;;5099841;28;20024;-77
2021/12/01 02:22:22;;;;;;;2.13;1.55;;;;;;;;;;5111993;27;20106;-77
2021/12/01 02:24:48;;;;;;;2.70;1.52;;;;;;;;;;5123985;28;20035;-78
2021/12/01 02:27:14;;;;;;;3.25;1.55;;;;;;;;;;5110609;28;20023;-77
2021/12/01 02:29:41;;;;;;;3.42;1.60;;;;;;;;;;5119862;28;20032;-79
2021/12/01 02:32:07;;;;;;;2.78;1.42;;;;;;;;;;5120180;28;20024;-78
2021/12/01 02:34:44;;;;;;;4.78;1.52;;;;;;;;;;5125573;27;20024;-80
2021/12/01 02:37:10;;;;;;;3.30;2.10;;;;;;;;;;5107180;28;20040;-79
2021/12/01 02:39:38;;;;;;;2.00;1.52;;;;;;;;;;5113784;27;20053;-81
2021/12/01 02:42:07;;;;;;;4.82;2.15;;;;;;;;;;5095313;27;20031;-79
2021/12/01 02:44:36;;;;;;;10.75;2.33;;;;;;;;;;5105017;28;20054;-77
2021/12/01 02:47:03;;;;;;;8.63;2.42;;;;;;;;;;5105314;28;20028;-76
2021/12/01 02:49:29;;;;;;;15.02;2.70;;;;;;;;;;5123625;28;20051;-79
2021/12/01 02:51:56;;;;;;;5.97;2.55;;;;;;;;;;5124390;27;20072;-78
2021/12/01 02:54:23;;;;;;;7.10;2.53;;;;;;;;;;5119336;28;20020;-78
2021/12/01 02:56:50;;;;;;;9.27;2.95;;;;;;;;;;5119730;28;20118;-77
2021/12/01 02:59:17;;;;;;;8.02;2.85;;;;;;;;;;5125974;28;20035;-77
2021/12/01 03:01:44;;;;;;;7.22;2.45;;;;;;;;;;5104123;28;20034;-77
2021/12/01 03:04:10;;;;;;;5.82;2.50;;;;;;;;;;5094057;28;20031;-78
2021/12/01 03:06:36;;;;;;;6.38;2.60;;;;;;;;;;5124531;27;20020;-77
2021/12/01 03:09:06;;;;;;;5.88;2.33;;;;;;;;;;5098583;28;20398;-78
2021/12/01 03:11:32;;;;;;;6.93;3.20;;;;;;;;;;5121441;27;20034;-79
2021/12/01 03:13:58;;;;;;;7.63;2.83;;;;;;;;;;5089945;28;20495;-76
2021/12/01 03:16:25;;;;;;;10.20;3.15;;;;;;;;;;5107285;28;20034;-80
2021/12/01 03:18:51;;;;;;;8.55;3.13;;;;;;;;;;5115071;28;20036;-79
2021/12/01 03:21:18;;;;;;;7.63;3.00;;;;;;;;;;5107802;28;20050;-80
2021/12/01 03:23:44;;;;;;;10.27;4.68;;;;;;;;;;5104355;28;20023;-78
2021/12/01 03:26:11;;;;;;;7.18;2.58;;;;;;;;;;5112710;28;20035;-77
2021/12/01 03:28:38;;;;;;;8.77;2.22;;;;;;;;;;5119017;28;20026;-78
2021/12/01 03:31:04;;;;;;;13.13;3.00;;;;;;;;;;5117985;28;20081;-79
2021/12/01 03:33:30;;;;;;;8.07;2.95;;;;;;;;;;5098101;28;20028;-80
2021/12/01 03:35:56;;;;;;;7.80;2.30;;;;;;;;;;5102015;28;20127;-79
2021/12/01 03:38:25;;;;;;;14.75;4.28;;;;;;;;;;5115456;27;20111;-79
2021/12/01 03:40:52;;;;;;;4.28;2.08;;;;;;;;;;5121351;28;20031;-76
2021/12/01 03:43:18;;;;;;;13.00;4.15;;;;;;;;;;5108560;28;20059;-80
2021/12/01 03:45:44;;;;;;;12.25;2.88;;;;;;;;;;5103059;27;20017;-78
2021/12/01 03:48:10;;;;;;;7.65;2.28;;;;;;;;;;5116870;28;20028;-77
2021/12/01 03:50:37;;;;;;;9.73;2.50;;;;;;;;;;5108832;27;20047;-76
2021/12/01 03:53:03;;;;;;;12.75;2.67;;;;;;;;;;5092107;28;20024;-79
2021/12/01 03:55:29;;;;;;;13.07;3.70;;;;;;;;;;5104486;28;20020;-77
2021/12/01 03:57:55;;;;;;;12.25;3.40;;;;;;;;;;5085150;28;20012;-78
2021/12/01 04:00:21;;;;;;;14.85;3.05;;;;;;;;;;5128438;27;20020;-76
2021/12/01 04:02:47;;;;;;;17.40;3.30;;;;;;;;;;5123051;28;20088;-79
2021/12/01 04:05:14;;;;;;;13.93;3.85;;;;;;;;;;5093919;28;20028;-77
2021/12/01 04:07:40;;;;;;;12.30;3.35;;;;;;;;;;5107814;28;20028;-79
2021/12/01 04:10:08;;;;;;;9.57;3.20;;;;;;;;;;5093408;28;20474;-78
2021/12/01 04:12:35;;;;;;;6.95;2.65;;;;;;;;;;5107610;28;20035;-79
2021/12/01 04:15:01;;;;;;;12.77;2.88;;;;;;;;;;5117822;28;20081;-77
2021/12/01 04:17:27;;;;;;;13.63;3.47;;;;;;;;;;5088176;28;20028;-78
2021/12/01 04:19:53;;;;;;;8.55;4.10;;;;;;;;;;5125967;27;20075;-78
2021/12/01 04:22:19;;;;;;;16.02;3.33;;;;;;;;;;5101126;27;20065;-80
2021/12/01 04:24:45;;;;;;;13.07;4.28;;;;;;;;;;5114510;27;20016;-79
2021/12/01 04:27:12;;;;;;;10.32;3.00;;;;;;;;;;5120885;27;20032;-79
2021/12/01 04:29:39;;;;;;;13.50;3.03;;;;;;;;;;5094802;28;20066;-79
2021/12/01 04:32:07;;;;;;;7.25;3.17;;;;;;;;;;5118100;27;20032;-78
2021/12/01 04:34:37;;;;;;;10.55;2.95;;;;;;;;;;5120225;27;20020;-79
2021/12/01 04:37:04;;;;;;;18.55;3.88;;;;;;;;;;5104298;28;20044;-77
2021/12/01 04:39:30;;;;;;;11.52;3.50;;;;;;;;;;5095009;28;20440;-78
2021/12/01 04:42:03;;;;;;;7.13;2.80;;;;;;;;;;5093549;28;20020;-76
2021/12/01 04:44:30;;;;;;;8.18;2.78;;;;;;;;;;5124106;28;20115;-79
2021/12/01 04:46:57;;;;;;;5.10;3.22;;;;;;;;;;5102051;28;20093;-79
2021/12/01 04:49:24;;;;;;;11.10;3.22;;;;;;;;;;5103704;28;20061;-76
2021/12/01 04:51:52;;;;;;;3.50;2.10;;;;;;;;;;5118260;28;20032;-79
2021/12/01 04:54:18;;;;;;;9.27;3.55;;;;;;;;;;5084908;28;20487;-79
2021/12/01 04:56:47;;;;;;;6.93;2.80;;;;;;;;;;5104810;28;20077;-78
2021/12/01 04:59:14;;;;;;;9.90;2.60;;;;;;;;;;5090612;28;20026;-78
2021/12/01 05:01:41;;;;;;;8.90;2.53;;;;;;;;;;5090805;28;20046;-79
2021/12/01 05:04:08;;;;;;;10.35;2.88;;;;;;;;;;5112398;28;20023;-78
2021/12/01 05:06:34;;;;;;;7.50;2.35;;;;;;;;;;5119887;28;20052;-78
2021/12/01 05:09:00;;;;;;;8.48;2.53;;;;;;;;;;5084989;28;20031;-77
2021/12/01 05:11:26;;;;;;;11.18;3.15;;;;;;;;;;5091660;28;20077;-78
2021/12/01 05:13:53;;;;;;;4.07;2.17;;;;;;;;;;5111623;28;20039;-78
2021/12/01 05:16:20;;;;;;;7.32;2.72;;;;;;;;;;5117924;27;20031;-80
2021/12/01 05:18:46;;;;;;;7.22;2.20;;;;;;;;;;5121095;28;20020;-77
2021/12/01 05:21:12;;;;;;;8.68;2.75;;;;;;;;;;5117828;28;20351;-77
2021/12/01 05:23:38;;;;;;;6.45;2.40;;;;;;;;;;5084489;28;20024;-80
2021/12/01 05:26:06;;;;;;;7.97;2.17;;;;;;;;;;5105291;28;20027;-79
2021/12/01 05:28:32;;;;;;;8.05;2.58;;;;;;;;;;5121195;28;20019;-78
2021/12/01 05:30:58;;;;;;;9.00;2.50;;;;;;;;;;5105247;28;20040;-79
2021/12/01 05:33:24;;;;;;;8.70;2.72;;;;;;;;;;5118432;28;20521;-75
2021/12/01 05:35:50;;;;;;;9.35;2.40;;;;;;;;;;5112970;28;20032;-78
2021/12/01 05:38:17;;;;;;;7.03;2.50;;;;;;;;;;5114523;28;20031;-77
2021/12/01 05:40:43;;;;;;;10.88;2.92;;;;;;;;;;5109400;28;20030;-79
2021/12/01 05:43:09;;;;;;;10.50;2.55;;;;;;;;;;5108161;28;20024;-79
2021/12/01 05:45:36;;;;;;;8.68;2.28;;;;;;;;;;5105031;28;20049;-78
2021/12/01 05:48:02;;;;;;;7.75;2.72;;;;;;;;;;5101332;28;20428;-79
2021/12/01 05:50:28;;;;;;;8.45;3.00;;;;;;;;;;5087852;28;20085;-77
2021/12/01 05:52:54;;;;;;;7.38;2.80;;;;;;;;;;5102688;28;20027;-77
2021/12/01 05:55:20;;;;;;;8.45;2.58;;;;;;;;;;5101901;28;20034;-77
2021/12/01 05:57:46;;;;;;;9.35;2.72;;;;;;;;;;5115867;28;20478;-76
2021/12/01 06:00:13;;;;;;;9.13;2.60;;;;;;;;;;5108843;28;20024;-81
2021/12/01 06:02:43;;;;;;;14.88;2.63;;;;;;;;;;5110107;28;20054;-77
2021/12/01 06:05:09;;;;;;;5.57;2.25;;;;;;;;;;5135882;28;20034;-78
2021/12/01 06:07:35;;;;;;;10.68;2.92;;;;;;;;;;5128940;28;20020;-78
2021/12/01 06:10:02;;;;;;;7.30;2.75;;;;;;;;;;5093072;28;20071;-78
2021/12/01 06:12:29;;;;;;;4.50;2.58;;;;;;;;;;5118283;28;20022;-78
2021/12/01 06:14:55;;;;;;;11.70;3.13;;;;;;;;;;5120829;28;20034;-77
2021/12/01 06:17:21;;;;;;;8.60;2.70;;;;;;;;;;5102465;28;20033;-78
2021/12/01 06:19:47;;;;;;;6.88;2.53;;;;;;;;;;5111534;28;20024;-78
2021/12/01 06:22:13;;;;;;;6.32;2.25;;;;;;;;;;5106156;28;20526;-80
2021/12/01 06:24:40;;;;;;;8.55;2.58;;;;;;;;;;5106524;28;20402;-77
2021/12/01 06:27:06;;;;;;;6.57;2.63;;;;;;;;;;5120139;28;20020;-81
2021/12/01 06:29:32;;;;;;;3.80;2.03;;;;;;;;;;5112271;28;20034;-76
2021/12/01 06:31:58;;;;;;;8.35;2.35;;;;;;;;;;5105823;28;20428;-80
2021/12/01 06:34:24;;;;;;;15.25;4.38;;;;;;;;;;5116955;28;20083;-78
2021/12/01 06:36:50;;;;;;;7.35;2.58;;;;;;;;;;5098973;28;20048;-79
2021/12/01 06:39:16;;;;;;;6.63;2.80;;;;;;;;;;5090156;28;20028;-78
2021/12/01 06:41:43;;;;;;;8.75;2.45;;;;;;;;;;5113253;28;20024;-79
2021/12/01 06:44:10;;;;;;;5.53;2.40;;;;;;;;;;5102529;28;20035;-77
2021/12/01 06:46:36;;;;;;;8.85;2.40;;;;;;;;;;5089970;28;20028;-77
2021/12/01 06:49:03;;;;;;;7.45;2.88;;;;;;;;;;5117926;28;20024;-77
2021/12/01 06:51:29;;;;;;;8.40;3.47;;;;;;;;;;5099177;28;20028;-80
2021/12/01 06:53:55;;;;;;;9.75;2.90;;;;;;;;;;5108993;28;20028;-78
2021/12/01 06:56:21;;;;;;;6.03;3.03;;;;;;;;;;5098574;28;20027;-79
2021/12/01 06:58:47;;;;;;;20.45;3.97;;;;;;;;;;5120109;28;20016;-78
2021/12/01 07:01:14;;;;;;;11.20;2.72;;;;;;;;;;5123708;27;20028;-79
2021/12/01 07:03:40;;;;;;;9.95;2.70;;;;;;;;;;5108906;27;20020;-80
2021/12/01 07:06:07;;;;;;;4.95;4.03;;;;;;;;;;5126179;28;20032;-77
2021/12/01 07:08:35;;;;;;;8.85;2.60;;;;;;;;;;5125106;27;20028;-77
2021/12/01 07:11:01;;;;;;;7.20;2.33;;;;;;;;;;5101442;27;20062;-76
2021/12/01 07:13:31;;;;;;;9.20;2.78;;;;;;;;;;5109606;28;20052;-78
2021/12/01 07:15:57;;;;;;;6.80;2.47;;;;;;;;;;5116989;28;20028;-78
2021/12/01 07:18:24;;;;;;;6.78;2.92;;;;;;;;;;5104754;28;20450;-76
2021/12/01 07:20:50;;;;;;;8.60;3.08;;;;;;;;;;5117424;28;20039;-78
2021/12/01 07:23:16;;;;;;;7.10;2.17;;;;;;;;;;5111497;28;20020;-79
2021/12/01 07:25:42;;;;;;;8.73;3.13;;;;;;;;;;5120484;27;20526;-78
2021/12/01 07:28:08;;;;;;;7.53;2.30;;;;;;;;;;5120615;28;20501;-79
2021/12/01 07:30:35;;;;;;;7.72;2.58;;;;;;;;;;5112610;28;20046;-78
2021/12/01 07:33:01;;;;;;;10.82;3.20;;;;;;;;;;5117475;28;20118;-77
2021/12/01 07:35:27;;;;;;;9.73;2.83;;;;;;;;;;5122126;28;20050;-80
2021/12/01 07:37:53;;;;;;;11.43;3.00;;;;;;;;;;5117192;28;20620;-80
2021/12/01 07:40:23;;;;;;;15.73;3.00;;;;;;;;;;5105207;27;20028;-79
2021/12/01 07:42:49;;;;;;;6.15;2.83;;;;;;;;;;5101315;28;20031;-78
2021/12/01 07:45:18;;;;;;;11.13;5.05;;;;;;;;;;5124874;28;20039;-79
2021/12/01 07:47:44;;;;;;;9.00;2.97;;;;;;;;;;5106326;28;20100;-80
2021/12/01 07:50:10;;;;;;;7.30;2.35;;;;;;;;;;5088459;28;20081;-79
2021/12/01 07:52:38;;;;;;;7.80;2.72;;;;;;;;;;5119709;28;20028;-78
2021/12/01 07:55:05;;;;;;;4.85;2.72;;;;;;;;;;5113823;27;20027;-77
2021/12/01 07:57:31;;;;;;;6.80;3.05;;;;;;;;;;5104113;28;20519;-77
2021/12/01 07:59:57;;;;;;;10.45;3.38;;;;;;;;;;5104684;28;20046;-78
2021/12/01 08:02:23;;;;;;;7.07;2.58;;;;;;;;;;5110851;28;20030;-76
2021/12/01 08:04:49;;;;;;;10.95;3.25;;;;;;;;;;5100181;28;20031;-78
2021/12/01 08:07:17;;;;;;;13.60;3.80;;;;;;;;;;5111627;28;20023;-78
2021/12/01 08:09:44;;;;;;;8.27;3.13;;;;;;;;;;5109811;28;20028;-77
2021/12/01 08:12:11;;;;;;;13.48;2.80;;;;;;;;;;5117675;27;20085;-79
2021/12/01 08:14:37;;;;;;;6.40;2.90;;;;;;;;;;5099388;28;20024;-81
2021/12/01 08:17:06;;;;;;;10.60;3.03;;;;;;;;;;5097556;27;20034;-76
2021/12/01 08:19:32;;;;;;;7.32;2.85;;;;;;;;;;5122074;27;20111;-80
2021/12/01 08:21:58;;;;;;;4.40;2.42;;;;;;;;;;5083132;28;20042;-79
2021/12/01 08:24:24;;;;;;;8.48;2.63;;;;;;;;;;5099259;28;20130;-78
2021/12/01 08:26:53;;;;;;;6.35;2.90;;;;;;;;;;5120795;28;20035;-78
2021/12/01 08:29:19;;;;;;;11.30;3.85;;;;;;;;;;5123409;27;20043;-79
2021/12/01 08:31:45;;;;;;;9.80;3.65;;;;;;;;;;5135157;27;20024;-78
2021/12/01 08:34:11;;;;;;;10.18;2.78;;;;;;;;;;5080741;28;20099;-77
2021/12/01 08:36:38;;;;;;;9.40;2.75;;;;;;;;;;5102316;28;20040;-77
2021/12/01 08:39:05;;;;;;;10.57;2.80;;;;;;;;;;5104717;28;20027;-77
2021/12/01 08:41:31;;;;;;;8.13;2.55;;;;;;;;;;5097150;28;20477;-78
2021/12/01 08:43:57;;;;;;;8.45;3.33;;;;;;;;;;5108408;27;20035;-75
2021/12/01 08:46:23;;;;;;;5.93;2.70;;;;;;;;;;5117962;28;20028;-76
2021/12/01 08:48:49;;;;;;;9.05;2.78;;;;;;;;;;5104286;28;20053;-76
2021/12/01 08:51:19;;;;;;;11.43;3.20;;;;;;;;;;5094448;28;20031;-77
2021/12/01 08:53:45;;;;;;;5.03;2.55;;;;;;;;;;5108729;28;20020;-77
2021/12/01 08:56:11;;;;;;;8.63;2.92;;;;;;;;;;5095915;28;20032;-78
2021/12/01 08:58:38;;;;;;;7.00;3.88;;;;;;;;;;5111424;28;20485;-76
2021/12/01 09:01:04;;;;;;;11.70;3.22;;;;;;;;;;5110871;28;20023;-77
2021/12/01 09:03:30;;;;;;;10.93;2.67;;;;;;;;;;5109163;28;20028;-77
2021/12/01 09:05:56;;;;;;;7.60;2.50;;;;;;;;;;5105418;27;20362;-78
2021/12/01 09:08:23;;;;;;;7.60;3.00;;;;;;;;;;5129340;27;20027;-77
2021/12/01 09:10:52;;;;;;;15.05;3.10;;;;;;;;;;5117552;28;20045;-79
2021/12/01 09:13:18;;;;;;;10.10;3.58;;;;;;;;;;5111644;28;20024;-77
2021/12/01 09:15:45;;;;;;;13.45;3.00;;;;;;;;;;5104012;28;20028;-80
2021/12/01 09:18:11;;;;;;;11.45;2.75;;;;;;;;;;5107421;28;20482;-78
2021/12/01 09:20:40;;;;;;;8.55;2.63;;;;;;;;;;5105831;28;20020;-79
2021/12/01 09:23:06;;;;;;;8.52;3.17;;;;;;;;;;5109487;28;20028;-79
2021/12/01 09:25:33;;;;;;;7.13;3.47;;;;;;;;;;5097851;28;20023;-78
2021/12/01 09:27:59;;;;;;;12.73;3.47;;;;;;;;;;5115645;27;20474;-78
2021/12/01 09:30:26;;;;;;;9.18;2.90;;;;;;;;;;5098843;28;20031;-77
2021/12/01 09:32:52;;;;;;;9.02;2.95;;;;;;;;;;5117347;28;20026;-78
2021/12/01 09:35:18;;;;;;;10.32;3.13;;;;;;;;;;5117745;28;20036;-76
2021/12/01 09:37:44;;;;;;;12.88;3.65;;;;;;;;;;5115797;28;20044;-77
2021/12/01 09:40:13;;;;;;;10.48;3.75;;;;;;;;;;5117223;28;20027;-77
2021/12/01 09:42:51;;;;;;;12.05;3.33;;;;;;;;;;5116539;28;20020;-77
2021/12/01 09:45:20;;;;;;;11.15;2.67;;;;;;;;;;5112758;28;20030;-78
2021/12/01 09:47:46;;;;;;;13.55;5.15;;;;;;;;;;5096446;28;20049;-76
2021/12/01 09:50:13;;;;;;;10.55;3.50;;;;;;;;;;5113499;28;20043;-76
2021/12/01 09:52:39;;;;;;;7.57;3.25;;;;;;;;;;5116581;28;20398;-76
2021/12/01 09:55:06;;;;;;;9.30;3.85;;;;;;;;;;5112953;28;20024;-79
2021/12/01 09:57:32;;;;;;;18.13;5.40;;;;;;;;;;5094198;28;20035;-77
2021/12/01 09:59:58;;;;;;;13.63;3.80;;;;;;;;;;5089008;28;20504;-77
2021/12/01 10:02:25;;;;;;;11.30;3.70;;;;;;;;;;5093408;28;20382;-78
2021/12/01 10:04:52;;;;;;;13.15;4.32;;;;;;;;;;5114550;28;20774;-76
2021/12/01 10:07:18;;;;;;;16.75;4.43;;;;;;;;;;5124485;28;20432;-79
2021/12/01 10:09:45;;;;;;;16.67;3.60;;;;;;;;;;5106049;28;20049;-79
2021/12/01 10:12:11;;;;;;;20.30;4.88;;;;;;;;;;5097766;28;20032;-78
2021/12/01 10:14:38;;;;;;;11.38;3.85;;;;;;;;;;5110895;28;20036;-79
2021/12/01 10:17:04;;;;;;;14.18;4.72;;;;;;;;;;5092314;28;20042;-79
2021/12/01 10:19:30;;;;;;;17.77;4.47;;;;;;;;;;5094445;28;20051;-80
2021/12/01 10:21:57;;;;;;;17.67;3.55;;;;;;;;;;5104211;28;20052;-78
2021/12/01 10:24:27;;;;;;;14.73;3.88;;;;;;;;;;5092800;28;20028;-78
2021/12/01 10:26:53;;;;;;;15.75;4.65;;;;;;;;;;5098942;28;20036;-78
2021/12/01 10:29:23;;;;;;;17.23;4.35;;;;;;;;;;5110321;28;20037;-79
2021/12/01 10:31:54;;;;;;;15.48;3.92;;;;;;;;;;5101683;28;20550;-79
2021/12/01 10:34:32;;;;;;;16.92;4.75;;;;;;;;;;5110358;28;20047;-78
2021/12/01 10:37:23;;;;;;;19.52;4.38;;;;;;;;;;5113824;28;20511;-77
2021/12/01 10:40:05;;;;;;;15.15;4.38;;;;;;;;;;5115723;28;20028;-76
2021/12/01 10:42:31;;;;;;;12.43;3.40;;;;;;;;;;5109933;28;20023;-79
2021/12/01 10:44:59;;;;;;;15.30;5.05;;;;;;;;;;5102464;27;20028;-77
2021/12/01 10:47:25;;;;;;;10.88;4.68;;;;;;;;;;5102953;28;20034;-76
2021/12/01 10:49:51;;;;;;;17.15;3.85;;;;;;;;;;5112005;28;20359;-79
2021/12/01 10:52:33;;;;;;;20.10;4.35;;;;;;;;;;5108947;28;20044;-78
2021/12/01 10:55:05;;;;;;;14.05;4.32;;;;;;;;;;5100522;28;20032;-80
2021/12/01 10:57:31;;;;;;;15.45;4.50;;;;;;;;;;5112731;28;20043;-78
2021/12/01 11:00:08;;;;;;;12.95;4.47;;;;;;;;;;5113932;27;20059;-78
2021/12/01 11:02:35;;;;;;;12.60;4.63;;;;;;;;;;5118357;28;20031;-77
2021/12/01 11:05:01;;;;;;;17.67;4.95;;;;;;;;;;5109752;28;20028;-80
2021/12/01 11:07:31;;;;;;;14.98;3.80;;;;;;;;;;5110336;27;20059;-77
2021/12/01 11:10:10;;;;;;;10.90;3.65;;;;;;;;;;5099767;28;20027;-75
2021/12/01 11:12:36;;;;;;;10.75;3.58;;;;;;;;;;5107390;28;20478;-76
2021/12/01 11:15:22;;;;;;;16.80;6.20;;;;;;;;;;5122210;28;20553;-77
2021/12/01 11:17:49;;;;;;;20.77;6.65;;;;;;;;;;5110692;28;20039;-78
2021/12/01 11:20:51;;;;;;;19.35;6.25;;;;;;;;;;5103506;28;20378;-77
2021/12/01 11:23:33;;;;;;;10.85;5.25;;;;;;;;;;5000325;28;20030;-77
2021/12/01 11:26:17;;;;;;;17.88;5.68;;;;;;;;;;5107156;28;20661;-77
2021/12/01 11:28:48;;;;;;;16.80;4.57;;;;;;;;;;5114484;28;20028;-77
2021/12/01 11:31:17;;;;;;;13.70;5.25;;;;;;;;;;5116192;28;20076;-77
2021/12/01 11:33:44;;;;;;;14.13;7.40;;;;;;;;;;5097003;28;20023;-77
2021/12/01 11:36:11;;;;;;;18.98;4.93;;;;;;;;;;5109526;28;20044;-79
2021/12/01 11:38:42;;;;;;;12.70;4.38;;;;;;;;;;5093258;28;20024;-79
2021/12/01 11:41:08;;;;;;;17.77;4.30;;;;;;;;;;5081369;28;20499;-76
2021/12/01 11:43:37;;;;;;;15.57;4.55;;;;;;;;;;5088747;28;20082;-77
2021/12/01 11:46:03;;;;;;;15.18;5.03;;;;;;;;;;5084197;28;20029;-76
2021/12/01 11:48:33;;;;;;;11.77;4.30;;;;;;;;;;5082960;28;20031;-76
2021/12/01 11:51:07;;;;;;;21.13;5.47;;;;;;;;;;5081969;28;20020;-76
2021/12/01 11:53:37;;;;;;;15.85;4.15;;;;;;;;;;5093228;28;20048;-78
2021/12/01 11:56:14;;;;;;;16.35;4.88;;;;;;;;;;5081273;28;20089;-78
2021/12/01 11:58:44;;;;;;;13.77;4.43;;;;;;;;;;5090142;28;20103;-77
2021/12/01 12:01:22;;;;;;;13.52;4.03;;;;;;;;;;5088865;28;20066;-79
2021/12/01 12:04:11;;;;;;;18.02;4.28;;;;;;;;;;5089194;28;20495;-76
2021/12/01 12:06:44;;;;;;;12.85;4.85;;;;;;;;;;5094643;28;20050;-77
2021/12/01 12:09:11;;;;;;;11.48;4.97;;;;;;;;;;5084314;28;20024;-78
2021/12/01 12:11:37;;;;;;;10.48;3.42;;;;;;;;;;5076764;28;20486;-77
2021/12/01 12:14:04;;;;;;;14.00;3.92;;;;;;;;;;5097985;28;20043;-77
2021/12/01 12:16:34;;;;;;;7.60;3.08;;;;;;;;;;5075941;28;20032;-78
2021/12/01 12:19:03;;;;;;;5.50;3.30;;;;;;;;;;5097356;28;20020;-78
2021/12/01 12:24:04;;;;;;;11.63;3.15;;;;;;;;;;5088779;28;20471;-78
2021/12/01 12:26:35;;;;;;;12.10;3.87;;;;;;;;;;5092726;28;20033;-78
2021/12/01 12:29:09;;;;;;;11.68;4.07;;;;;;;;;;5078901;28;20119;-77
2021/12/01 12:31:36;;;;;;;16.25;3.90;;;;;;;;;;5095932;28;20506;-77
2021/12/01 12:34:04;;;;;;;14.07;4.50;;;;;;;;;;5072081;28;20033;-78
2021/12/01 12:36:41;;;;;;;14.95;3.70;;;;;;;;;;5090962;28;20123;-78
2021/12/01 12:39:09;;;;;;;13.35;3.78;;;;;;;;;;5116033;27;20011;-78
2021/12/01 12:41:53;;;;;;;8.52;2.10;;;;;;;;;;5124229;28;20054;-76
2021/12/01 12:44:32;;;;;;;5.82;2.42;;;;;;;;;;5106273;28;20030;-77
2021/12/01 12:47:05;;;;;;;10.35;3.70;;;;;;;;;;5108999;28;20059;-79
2021/12/01 12:50:01;;;;;;;5.05;2.72;;;;;;;;;;5112561;28;20053;-76
2021/12/01 12:52:27;;;;;;;9.88;2.95;;;;;;;;;;5072273;28;20077;-76
2021/12/01 12:54:54;;;;;;;9.52;2.78;;;;;;;;;;5115377;28;20506;-78
2021/12/01 12:57:21;;;;;;;6.68;2.58;;;;;;;;;;5116028;28;20037;-76
2021/12/01 12:59:47;;;;;;;10.60;3.00;;;;;;;;;;5123303;28;20020;-78
2021/12/01 13:02:16;;;;;;;6.32;2.42;;;;;;;;;;5121974;28;20020;-77
2021/12/01 13:04:48;;;;;;;5.28;2.45;;;;;;;;;;5112304;28;20051;-77
2021/12/01 13:10:02;;;;;;;7.03;2.75;;;;;;;;;;5102851;27;20185;-77
2021/12/01 13:12:28;;;;;;;7.45;2.10;;;;;;;;;;5104956;28;20036;-76
2021/12/01 13:14:54;;;;;;;9.02;2.97;;;;;;;;;;5107089;27;20035;-77
2021/12/01 13:17:21;;;;;;;6.78;2.55;;;;;;;;;;5101131;28;20046;-77
2021/12/01 13:19:47;;;;;;;5.40;2.90;;;;;;;;;;5104977;28;20386;-77
2021/12/01 13:22:13;;;;;;;5.90;2.38;;;;;;;;;;5096599;28;20031;-77
2021/12/01 13:24:39;;;;;;;4.75;3.30;;;;;;;;;;5098785;28;20051;-77
2021/12/01 13:27:05;;;;;;;4.93;3.38;;;;;;;;;;5091824;28;20428;-77
2021/12/01 13:29:31;;;;;;;6.72;4.05;;;;;;;;;;5101793;28;20051;-77
2021/12/01 13:31:57;;;;;;;13.57;5.45;;;;;;;;;;5101538;28;20036;-77
2021/12/01 13:34:26;;;;;;;7.28;4.63;;;;;;;;;;5107171;28;20084;-77
2021/12/01 13:36:53;;;;;;;8.20;4.28;;;;;;;;;;5091556;27;20478;-77
2021/12/01 13:39:20;;;;;;;5.30;3.13;;;;;;;;;;5082236;28;20495;-77
2021/12/01 13:41:51;;;;;;;8.00;5.50;;;;;;;;;;5089668;28;20052;-76
2021/12/01 13:44:23;;;;;;;4.78;3.05;;;;;;;;;;5072368;28;20034;-78
2021/12/01 13:46:58;;;;;;;8.13;5.18;;;;;;;;;;5083816;28;20038;-76
2021/12/01 13:49:35;;;;;;;9.57;5.13;;;;;;;;;;5077998;28;20119;-77
2021/12/01 13:52:01;;;;;;;9.35;4.55;;;;;;;;;;5084588;28;20042;-77
2021/12/01 13:54:27;;;;;;;6.90;3.38;;;;;;;;;;5070091;28;20036;-76
2021/12/01 13:57:06;;;;;;;5.10;2.78;;;;;;;;;;5072942;28;20032;-77
2021/12/01 13:59:38;;;;;;;7.05;4.15;;;;;;;;;;5069476;28;20031;-77
2021/12/01 14:02:05;;;;;;;10.93;6.35;;;;;;;;;;5066695;28;20028;-77
2021/12/01 14:04:31;;;;;;;8.75;5.90;;;;;;;;;;5086108;28;20019;-77
2021/12/01 14:06:57;;;;;;;4.75;3.30;;;;;;;;;;5085354;28;20486;-76
2021/12/01 14:09:29;;;;;;;9.18;4.07;;;;;;;;;;5086663;28;20078;-76
2021/12/01 14:11:57;;;;;;;5.32;3.70;;;;;;;;;;5078530;28;20028;-77
2021/12/01 14:14:25;;;;;;;4.28;2.40;;;;;;;;;;5097900;28;20040;-76
2021/12/01 14:16:52;;;;;;;6.40;4.25;;;;;;;;;;5092726;28;20093;-76
2021/12/01 14:19:18;;;;;;;7.00;3.58;;;;;;;;;;5085774;28;20029;-77
2021/12/01 14:21:45;;;;;;;6.32;3.47;;;;;;;;;;5085099;28;20024;-77
2021/12/01 14:24:11;;;;;;;4.32;2.40;;;;;;;;;;5083369;28;20032;-75
2021/12/01 14:26:38;;;;;;;4.30;2.85;;;;;;;;;;5095205;28;20032;-77
2021/12/01 14:29:06;;;;;;;7.07;4.38;;;;;;;;;;5096739;28;20032;-79
2021/12/01 14:31:33;;;;;;;9.27;7.22;;;;;;;;;;5079871;28;20020;-77
2021/12/01 14:34:02;;;;;;;15.48;5.95;;;;;;;;;;5093869;28;20027;-77
2021/12/01 14:36:28;;;;;;;31.70;14.85;;;;;;;;;;5103314;28;20036;-77
2021/12/01 14:38:54;;;;;;;8.00;4.32;;;;;;;;;;5106431;28;20032;-75
2021/12/01 14:41:20;;;;;;;5.25;3.22;;;;;;;;;;5099238;28;20035;-77
2021/12/01 14:43:56;;;;;;;7.63;3.45;;;;;;;;;;5089516;28;20503;-80
2021/12/01 14:46:22;;;;;;;5.85;3.00;;;;;;;;;;5096070;28;20144;-76
2021/12/01 14:48:48;;;;;;;6.72;3.03;;;;;;;;;;5093276;28;20035;-75
2021/12/01 14:51:14;;;;;;;4.15;3.25;;;;;;;;;;5102968;28;20058;-77
2021/12/01 14:53:41;;;;;;;6.35;4.07;;;;;;;;;;5116413;28;20081;-80